createdAt,value
2018-02-03T00:00:42.567Z,3.62
2018-02-03T00:03:10.129Z,3.56
2018-02-03T00:05:37.655Z,3.60
2018-02-03T00:08:05.165Z,3.51
2018-02-03T00:10:32.709Z,3.56
2018-02-03T00:13:00.264Z,3.56
2018-02-03T00:15:27.929Z,3.55
2018-02-03T00:17:55.436Z,3.55
2018-02-03T00:20:22.960Z,3.63
2018-02-03T00:22:50.496Z,3.61
2018-02-03T00:25:18.066Z,3.59
2018-02-03T00:27:45.667Z,3.59
2018-02-03T00:30:13.244Z,3.58
2018-02-03T00:32:40.817Z,3.57
2018-02-03T00:35:08.349Z,3.58
2018-02-03T00:37:36.014Z,3.58
2018-02-03T00:40:03.566Z,3.60
2018-02-03T00:42:31.154Z,3.57
2018-02-03T00:44:58.706Z,3.66
2018-02-03T00:47:26.235Z,3.62
2018-02-03T00:49:53.746Z,3.64
2018-02-03T00:52:21.303Z,3.61
2018-02-03T00:54:48.801Z,3.67
2018-02-03T00:57:16.305Z,3.64
2018-02-03T00:59:43.863Z,3.67
2018-02-03T01:02:11.409Z,3.62
2018-02-03T01:04:38.963Z,3.57
2018-02-03T01:07:06.552Z,3.62
2018-02-03T01:09:34.198Z,3.58
2018-02-03T01:12:01.856Z,3.56
2018-02-03T01:14:29.413Z,3.56
2018-02-03T01:16:57.027Z,3.61
2018-02-03T01:19:24.553Z,3.60
2018-02-03T01:21:52.092Z,3.57
2018-02-03T01:24:19.711Z,3.62
2018-02-03T01:26:47.255Z,3.55
2018-02-03T01:29:14.802Z,3.53
2018-02-03T01:31:42.356Z,3.48
2018-02-03T01:34:09.963Z,3.46
2018-02-03T01:36:37.463Z,3.43
2018-02-03T01:39:05.020Z,3.47
2018-02-03T01:41:32.551Z,3.46
2018-02-03T01:44:00.149Z,3.39
2018-02-03T01:46:27.754Z,3.36
2018-02-03T01:48:55.311Z,3.38
2018-02-03T01:51:22.841Z,3.44
2018-02-03T01:53:50.361Z,3.37
2018-02-03T01:56:17.905Z,3.37
2018-02-03T01:58:45.453Z,3.35
2018-02-03T02:01:12.998Z,3.41
2018-02-03T02:03:40.518Z,3.32
2018-02-03T02:06:08.100Z,3.31
2018-02-03T02:08:35.640Z,3.32
2018-02-03T02:11:03.248Z,3.27
2018-02-03T02:13:30.794Z,3.32
2018-02-03T02:15:58.297Z,3.29
2018-02-03T02:18:25.835Z,3.35
2018-02-03T02:20:53.391Z,3.28
2018-02-03T02:23:20.957Z,3.34
2018-02-03T02:25:48.504Z,3.25
2018-02-03T02:28:16.075Z,3.26
2018-02-03T02:30:43.603Z,3.18
2018-02-03T02:33:11.113Z,3.21
2018-02-03T02:35:38.642Z,3.21
2018-02-03T02:38:06.151Z,3.23
2018-02-03T02:40:33.713Z,3.24
2018-02-03T02:43:01.248Z,3.23
2018-02-03T02:45:28.771Z,3.18
2018-02-03T02:47:56.303Z,3.16
2018-02-03T02:50:23.856Z,3.16
2018-02-03T02:52:51.407Z,3.25
2018-02-03T02:55:18.955Z,3.21
2018-02-03T02:57:46.481Z,3.20
2018-02-03T03:00:14.007Z,3.18
2018-02-03T03:02:41.567Z,3.14
2018-02-03T03:05:09.094Z,3.13
2018-02-03T03:07:36.781Z,3.20
2018-02-03T03:10:04.359Z,3.16
2018-02-03T03:12:31.907Z,3.19
2018-02-03T03:14:59.427Z,3.18
2018-02-03T03:17:27.007Z,3.25
2018-02-03T03:19:54.551Z,3.27
2018-02-03T03:22:22.099Z,3.15
2018-02-03T03:24:49.642Z,3.06
2018-02-03T03:27:17.228Z,3.13
2018-02-03T03:29:44.771Z,3.07
2018-02-03T03:32:12.321Z,3.09
2018-02-03T03:34:39.892Z,3.01
2018-02-03T03:37:07.413Z,3.08
2018-02-03T03:39:35.134Z,3.18
2018-02-03T03:42:02.667Z,3.16
2018-02-03T03:44:30.166Z,3.15
2018-02-03T03:46:57.712Z,3.07
2018-02-03T03:49:25.261Z,3.16
2018-02-03T03:51:52.818Z,3.05
2018-02-03T03:54:20.328Z,3.07
2018-02-03T03:56:47.870Z,3.15
2018-02-03T03:59:15.448Z,3.14
2018-02-03T04:01:43.087Z,3.14
2018-02-03T04:04:10.631Z,3.12
2018-02-03T04:06:38.167Z,3.07
2018-02-03T04:09:05.727Z,3.03
2018-02-03T04:11:33.257Z,3.03
2018-02-03T04:14:00.815Z,3.04
2018-02-03T04:16:28.332Z,3.06
2018-02-03T04:18:55.896Z,3.10
2018-02-03T04:21:23.436Z,3.02
2018-02-03T04:23:50.981Z,2.99
2018-02-03T04:26:18.512Z,3.06
2018-02-03T04:28:46.012Z,3.03
2018-02-03T04:31:13.558Z,3.06
2018-02-03T04:33:41.085Z,3.06
2018-02-03T04:38:35.454Z,3.06
2018-02-03T04:41:02.987Z,3.02
2018-02-03T04:43:30.509Z,3.01
2018-02-03T04:45:58.019Z,3.04
2018-02-03T04:48:25.541Z,2.93
2018-02-03T04:50:53.059Z,3.00
2018-02-03T04:53:20.606Z,3.00
2018-02-03T04:55:49.044Z,3.03
2018-02-03T04:58:16.592Z,3.04
2018-02-03T05:00:44.196Z,3.04
2018-02-03T05:03:11.767Z,2.93
2018-02-03T05:05:39.317Z,3.01
2018-02-03T05:08:06.861Z,2.92
2018-02-03T05:10:34.380Z,2.96
2018-02-03T05:13:01.909Z,2.93
2018-02-03T05:15:29.483Z,2.91
2018-02-03T05:17:57.042Z,2.86
2018-02-03T05:20:24.673Z,2.94
2018-02-03T05:22:52.277Z,2.85
2018-02-03T05:25:19.854Z,2.92
2018-02-03T05:27:47.381Z,2.92
2018-02-03T05:30:14.919Z,2.95
2018-02-03T05:32:42.485Z,2.91
2018-02-03T05:35:10.092Z,2.95
2018-02-03T05:37:39.008Z,2.83
2018-02-03T05:40:06.893Z,2.92
2018-02-03T05:42:34.459Z,2.76
2018-02-03T05:45:04.169Z,2.77
2018-02-03T05:47:31.912Z,2.86
2018-02-03T05:49:59.438Z,2.74
2018-02-03T05:52:28.257Z,2.84
2018-02-03T05:54:55.866Z,2.84
2018-02-03T05:57:23.669Z,2.91
2018-02-03T05:59:51.221Z,2.90
2018-02-03T06:02:18.923Z,2.90
2018-02-03T06:04:46.765Z,2.91
2018-02-03T06:07:14.348Z,2.90
2018-02-03T06:09:41.947Z,2.81
2018-02-03T06:12:09.815Z,2.76
2018-02-03T06:14:37.507Z,2.88
2018-02-03T06:17:05.175Z,2.84
2018-02-03T06:19:32.733Z,2.85
2018-02-03T06:22:00.275Z,2.87
2018-02-03T06:24:27.875Z,2.88
2018-02-03T06:26:55.512Z,2.85
2018-02-03T06:29:23.116Z,2.79
2018-02-03T06:31:50.859Z,2.71
2018-02-03T06:34:18.387Z,2.70
2018-02-03T06:36:46.018Z,2.73
2018-02-03T06:39:13.783Z,2.75
2018-02-03T06:41:41.918Z,2.75
2018-02-03T06:44:09.516Z,2.79
2018-02-03T06:46:38.649Z,2.76
2018-02-03T06:49:06.299Z,2.71
2018-02-03T06:51:34.921Z,2.65
2018-02-03T06:54:02.724Z,2.65
2018-02-03T06:56:32.564Z,2.64
2018-02-03T06:59:00.164Z,2.65
2018-02-03T07:01:30.144Z,2.72
2018-02-03T07:03:57.712Z,2.74
2018-02-03T07:06:25.273Z,2.64
2018-02-03T07:08:52.835Z,2.61
2018-02-03T07:11:20.456Z,2.63
2018-02-03T07:13:48.075Z,2.70
2018-02-03T07:16:16.836Z,2.75
2018-02-03T07:18:44.460Z,2.72
2018-02-03T07:21:12.154Z,2.71
2018-02-03T07:23:39.842Z,2.72
2018-02-03T07:26:08.160Z,2.68
2018-02-03T07:28:35.774Z,2.78
2018-02-03T07:31:03.316Z,2.74
2018-02-03T07:33:31.720Z,2.74
2018-02-03T07:35:59.357Z,2.68
2018-02-03T07:38:29.085Z,2.52
2018-02-03T07:40:56.630Z,2.58
2018-02-03T07:43:24.202Z,2.63
2018-02-03T07:45:51.817Z,2.66
2018-02-03T07:48:19.430Z,2.64
2018-02-03T07:50:47.046Z,2.69
2018-02-03T07:53:14.575Z,2.67
2018-02-03T07:55:42.147Z,2.56
2018-02-03T07:58:09.743Z,2.48
2018-02-03T08:00:37.305Z,2.40
2018-02-03T08:03:04.940Z,2.42
2018-02-03T08:05:32.528Z,2.46
2018-02-03T08:08:00.080Z,2.30
2018-02-03T08:10:27.821Z,2.13
2018-02-03T08:12:55.415Z,2.04
2018-02-03T08:15:22.958Z,2.12
2018-02-03T08:17:52.840Z,1.97
2018-02-03T08:20:20.460Z,1.92
2018-02-03T08:22:48.027Z,2.07
2018-02-03T08:25:15.640Z,2.13
2018-02-03T08:27:43.129Z,2.06
2018-02-03T08:30:10.724Z,2.09
2018-02-03T08:32:38.235Z,2.12
2018-02-03T08:35:05.772Z,2.11
2018-02-03T08:37:33.382Z,2.04
2018-02-03T08:40:00.932Z,1.97
2018-02-03T08:42:28.469Z,1.98
2018-02-03T08:44:56.043Z,1.91
2018-02-03T08:47:23.595Z,2.07
2018-02-03T08:49:51.887Z,2.02
2018-02-03T08:52:19.440Z,1.98
2018-02-03T08:54:46.946Z,2.03
2018-02-03T08:57:14.531Z,1.96
2018-02-03T08:59:42.119Z,1.99
2018-02-03T09:02:09.644Z,1.99
2018-02-03T09:04:37.172Z,1.97
2018-02-03T09:07:04.703Z,2.10
2018-02-03T09:09:32.233Z,2.08
2018-02-03T09:12:05.738Z,2.17
2018-02-03T09:14:33.259Z,1.96
2018-02-03T09:17:00.795Z,2.02
2018-02-03T09:19:28.835Z,2.06
2018-02-03T09:21:57.495Z,2.14
2018-02-03T09:24:26.407Z,2.25
2018-02-03T09:26:54.994Z,2.38
2018-02-03T09:29:22.695Z,2.12
2018-02-03T09:31:50.471Z,2.30
2018-02-03T09:34:19.066Z,2.41
2018-02-03T09:36:46.756Z,2.42
2018-02-03T09:39:14.376Z,2.42
2018-02-03T09:41:42.612Z,2.48
2018-02-03T09:44:10.186Z,2.55
2018-02-03T09:46:38.100Z,2.60
2018-02-03T09:49:06.372Z,2.58
2018-02-03T09:51:37.863Z,2.90
2018-02-03T09:54:05.741Z,3.07
2018-02-03T09:56:34.258Z,3.56
2018-02-03T09:59:02.059Z,3.56
2018-02-03T10:01:30.047Z,3.15
2018-02-03T10:03:58.898Z,3.25
2018-02-03T10:06:31.747Z,3.14
2018-02-03T10:08:59.303Z,3.13
2018-02-03T10:11:27.060Z,3.11
2018-02-03T10:13:56.262Z,3.09
2018-02-03T10:16:27.471Z,2.97
2018-02-03T10:18:55.010Z,3.05
2018-02-03T10:21:22.575Z,3.04
2018-02-03T10:23:51.352Z,3.00
2018-02-03T10:26:21.348Z,2.92
2018-02-03T10:28:49.748Z,3.02
2018-02-03T10:31:17.256Z,2.99
2018-02-03T10:33:44.836Z,3.06
2018-02-03T10:36:12.469Z,3.07
2018-02-03T10:38:40.132Z,3.02
2018-02-03T10:41:07.816Z,3.25
2018-02-03T10:43:35.612Z,3.14
2018-02-03T10:46:03.190Z,3.45
2018-02-03T10:48:30.713Z,3.68
2018-02-03T10:50:58.262Z,3.86
2018-02-03T10:53:25.829Z,3.89
2018-02-03T10:55:53.976Z,4.04
2018-02-03T10:58:21.583Z,4.32
2018-02-03T11:00:49.094Z,4.31
2018-02-03T11:03:17.376Z,4.37
2018-02-03T11:05:44.944Z,4.16
2018-02-03T11:08:14.028Z,3.88
2018-02-03T11:10:41.954Z,4.02
2018-02-03T11:13:10.371Z,3.94
2018-02-03T11:15:38.114Z,4.11
2018-02-03T11:18:05.819Z,4.09
2018-02-03T11:20:33.370Z,3.93
2018-02-03T11:23:00.876Z,4.00
2018-02-03T11:25:28.626Z,3.82
2018-02-03T11:27:56.326Z,3.79
2018-02-03T11:30:23.890Z,3.68
2018-02-03T11:32:51.568Z,3.76
2018-02-03T11:35:19.080Z,3.95
2018-02-03T11:37:47.680Z,4.06
2018-02-03T11:40:15.752Z,4.22
2018-02-03T11:42:43.416Z,4.09
2018-02-03T11:45:11.230Z,4.05
2018-02-03T11:47:40.805Z,4.07
2018-02-03T11:50:08.378Z,3.92
2018-02-03T11:52:35.895Z,3.87
2018-02-03T11:55:03.437Z,4.19
2018-02-03T11:57:30.976Z,4.36
2018-02-03T11:59:58.858Z,4.06
2018-02-03T12:02:26.470Z,4.03
2018-02-03T12:04:54.075Z,4.06
2018-02-03T12:07:21.633Z,3.98
2018-02-03T12:09:49.164Z,3.69
2018-02-03T12:12:16.871Z,3.57
2018-02-03T12:14:46.509Z,3.44
2018-02-03T12:17:14.124Z,3.51
2018-02-03T12:19:41.908Z,3.45
2018-02-03T12:22:09.429Z,3.62
2018-02-03T12:24:37.017Z,3.31
2018-02-03T12:27:05.643Z,3.28
2018-02-03T12:29:34.485Z,3.28
2018-02-03T12:32:02.134Z,3.31
2018-02-03T12:34:29.757Z,3.18
2018-02-03T12:36:57.277Z,3.35
2018-02-03T12:39:24.967Z,3.34
2018-02-03T12:41:52.707Z,3.12
2018-02-03T12:44:22.045Z,3.21
2018-02-03T12:46:49.612Z,3.36
2018-02-03T12:49:17.217Z,3.43
2018-02-03T12:51:44.779Z,3.38
2018-02-03T12:54:12.727Z,3.30
2018-02-03T12:56:40.718Z,3.44
2018-02-03T12:59:08.295Z,3.43
2018-02-03T13:01:38.744Z,3.10
2018-02-03T13:04:06.389Z,3.08
2018-02-03T13:06:34.051Z,2.89
2018-02-03T13:09:02.228Z,2.88
2018-02-03T13:11:29.881Z,2.90
2018-02-03T13:13:57.465Z,2.84
2018-02-03T13:16:25.093Z,2.84
2018-02-03T13:18:52.934Z,2.84
2018-02-03T13:21:20.498Z,2.92
2018-02-03T13:23:53.188Z,3.07
2018-02-03T13:26:20.842Z,3.00
2018-02-03T13:28:48.375Z,3.02
2018-02-03T13:31:16.845Z,2.92
2018-02-03T13:33:44.371Z,2.90
2018-02-03T13:36:11.911Z,2.90
2018-02-03T13:38:39.500Z,2.71
2018-02-03T13:41:07.039Z,2.89
2018-02-03T13:43:34.622Z,2.76
2018-02-03T13:46:02.162Z,2.72
2018-02-03T13:51:27.652Z,2.71
2018-02-03T13:53:55.267Z,2.80
2018-02-03T13:56:22.819Z,2.82
2018-02-03T13:58:50.383Z,2.73
2018-02-03T14:01:18.703Z,2.83
2018-02-03T14:03:46.260Z,2.83
2018-02-03T14:06:13.864Z,2.92
2018-02-03T14:08:41.408Z,2.82
2018-02-03T14:11:08.933Z,2.73
2018-02-03T14:13:36.518Z,2.83
2018-02-03T14:16:04.149Z,2.83
2018-02-03T14:18:31.768Z,2.78
2018-02-03T14:20:59.296Z,2.89
2018-02-03T14:23:26.872Z,2.64
2018-02-03T14:26:00.029Z,2.73
2018-02-03T14:28:27.593Z,2.68
2018-02-03T14:30:55.182Z,2.72
2018-02-03T14:33:22.745Z,2.84
2018-02-03T14:35:50.300Z,2.89
2018-02-03T14:38:17.831Z,2.79
2018-02-03T14:40:45.395Z,2.63
2018-02-03T14:43:12.938Z,2.58
2018-02-03T14:45:40.478Z,2.43
2018-02-03T14:48:08.137Z,2.50
2018-02-03T14:50:35.678Z,2.39
2018-02-03T14:53:03.219Z,2.45
2018-02-03T14:55:30.763Z,2.32
2018-02-03T14:57:58.284Z,2.22
2018-02-03T15:00:25.830Z,2.40
2018-02-03T15:02:53.338Z,2.26
2018-02-03T15:05:20.880Z,2.06
2018-02-03T15:07:48.472Z,2.11
2018-02-03T15:10:16.086Z,2.28
2018-02-03T15:12:43.620Z,2.14
2018-02-03T15:15:11.215Z,2.06
2018-02-03T15:17:38.758Z,2.01
2018-02-03T15:20:06.286Z,2.11
2018-02-03T15:22:33.919Z,2.01
2018-02-03T15:25:01.432Z,2.17
2018-02-03T15:27:28.995Z,2.18
2018-02-03T15:29:56.515Z,2.13
2018-02-03T15:32:24.226Z,2.15
2018-02-03T15:34:51.827Z,2.19
2018-02-03T15:37:19.311Z,2.19
2018-02-03T15:39:46.835Z,2.14
2018-02-03T15:42:14.477Z,2.17
2018-02-03T15:44:41.972Z,2.15
2018-02-03T15:47:09.464Z,2.16
2018-02-03T15:49:36.979Z,2.19
2018-02-03T15:52:04.506Z,2.11
2018-02-03T15:54:32.065Z,2.09
2018-02-03T15:57:00.387Z,2.09
2018-02-03T15:59:28.300Z,2.11
2018-02-03T16:01:55.832Z,2.08
2018-02-03T16:04:23.435Z,2.07
2018-02-03T16:06:50.972Z,1.95
2018-02-03T16:09:18.477Z,1.98
2018-02-03T16:11:45.981Z,2.06
2018-02-03T16:14:13.496Z,2.05
2018-02-03T16:16:41.019Z,2.05
2018-02-03T16:19:08.518Z,2.05
2018-02-03T16:21:36.017Z,2.11
2018-02-03T16:24:04.676Z,2.09
2018-02-03T16:26:32.312Z,2.10
2018-02-03T16:29:00.027Z,1.97
2018-02-03T16:31:29.316Z,2.06
2018-02-03T16:33:56.871Z,2.06
2018-02-03T16:36:24.432Z,1.96
2018-02-03T16:38:51.940Z,1.99
2018-02-03T16:41:19.514Z,1.91
2018-02-03T16:43:47.034Z,1.95
2018-02-03T16:46:14.546Z,1.98
2018-02-03T16:48:42.074Z,2.01
2018-02-03T16:51:09.649Z,2.01
2018-02-03T16:53:37.198Z,2.04
2018-02-03T16:56:04.767Z,2.07
2018-02-03T16:58:32.273Z,2.01
2018-02-03T17:00:59.774Z,1.95
2018-02-03T17:03:27.306Z,1.99
2018-02-03T17:05:54.821Z,1.99
2018-02-03T17:08:22.328Z,1.93
2018-02-03T17:10:49.859Z,1.99
2018-02-03T17:13:17.546Z,1.94
2018-02-03T17:15:45.175Z,1.92
2018-02-03T17:18:13.586Z,1.91
2018-02-03T17:20:41.118Z,1.76
2018-02-03T17:23:08.655Z,1.60
2018-02-03T17:25:36.211Z,1.61
2018-02-03T17:28:03.803Z,1.49
2018-02-03T17:30:31.326Z,1.61
2018-02-03T17:32:58.841Z,1.66
2018-02-03T17:35:26.377Z,1.59
2018-02-03T17:37:59.476Z,1.67
2018-02-03T17:40:27.001Z,1.55
2018-02-03T17:42:54.537Z,1.35
2018-02-03T17:45:27.661Z,1.45
2018-02-03T17:47:55.181Z,1.56
2018-02-03T17:50:22.716Z,1.55
2018-02-03T17:52:50.259Z,1.58
2018-02-03T17:55:23.404Z,1.58
2018-02-03T17:57:50.905Z,1.46
2018-02-03T18:00:18.435Z,1.57
2018-02-03T18:02:45.976Z,1.62
2018-02-03T18:05:13.527Z,1.63
2018-02-03T18:07:41.062Z,1.63
2018-02-03T18:10:08.607Z,1.66
2018-02-03T18:12:36.134Z,1.67
2018-02-03T18:15:03.656Z,1.64
2018-02-03T18:17:31.220Z,1.67
2018-02-03T18:19:59.187Z,1.52
2018-02-03T18:22:26.818Z,1.51
2018-02-03T18:24:54.376Z,1.41
2018-02-03T18:27:21.960Z,1.43
2018-02-03T18:29:50.464Z,1.48
2018-02-03T18:32:18.015Z,1.51
2018-02-03T18:34:45.534Z,1.51
2018-02-03T18:37:13.169Z,1.53
2018-02-03T18:39:40.870Z,1.55
2018-02-03T18:42:08.400Z,1.43
2018-02-03T18:44:37.119Z,1.44
2018-02-03T18:47:04.880Z,1.45
2018-02-03T18:49:32.464Z,1.45
2018-02-03T18:52:00.011Z,1.46
2018-02-03T18:54:27.560Z,1.52
2018-02-03T18:56:55.095Z,1.43
2018-02-03T18:59:23.620Z,1.33
2018-02-03T19:01:51.927Z,1.30
2018-02-03T19:04:19.473Z,1.36
2018-02-03T19:06:47.068Z,1.45
2018-02-03T19:09:14.601Z,1.42
2018-02-03T19:11:42.143Z,1.42
2018-02-03T19:14:09.696Z,1.42
2018-02-03T19:16:37.230Z,1.21
2018-02-03T19:19:04.762Z,1.12
2018-02-03T19:21:32.297Z,1.19
2018-02-03T19:23:59.860Z,1.27
2018-02-03T19:26:27.412Z,1.34
2018-02-03T19:28:54.989Z,1.37
2018-02-03T19:31:22.533Z,1.35
2018-02-03T19:33:50.086Z,1.34
2018-02-03T19:36:17.661Z,1.35
2018-02-03T19:38:45.253Z,1.20
2018-02-03T19:41:12.842Z,1.23
2018-02-03T19:43:40.412Z,1.15
2018-02-03T19:46:07.948Z,1.12
2018-02-03T19:48:35.491Z,1.21
2018-02-03T19:51:03.000Z,1.26
2018-02-03T19:53:33.358Z,1.26
2018-02-03T19:56:00.889Z,1.27
2018-02-03T19:58:28.418Z,1.31
2018-02-03T20:00:55.932Z,1.30
2018-02-03T20:03:23.514Z,1.34
2018-02-03T20:05:51.107Z,1.38
2018-02-03T20:08:18.638Z,1.25
2018-02-03T20:10:47.043Z,1.18
2018-02-03T20:13:14.603Z,1.32
2018-02-03T20:15:42.122Z,1.33
2018-02-03T20:18:09.687Z,1.24
2018-02-03T20:20:37.309Z,1.24
2018-02-03T20:23:04.819Z,1.20
2018-02-03T20:25:32.359Z,1.14
2018-02-03T20:27:59.873Z,1.07
2018-02-03T20:30:27.378Z,1.09
2018-02-03T20:32:54.938Z,1.21
2018-02-03T20:35:22.481Z,1.16
2018-02-03T20:37:50.004Z,1.07
2018-02-03T20:40:17.519Z,1.16
2018-02-03T20:42:45.026Z,1.11
2018-02-03T20:45:12.563Z,1.09
2018-02-03T20:47:40.104Z,1.02
2018-02-03T20:50:07.657Z,1.14
2018-02-03T20:52:35.276Z,0.98
2018-02-03T20:55:02.804Z,1.06
2018-02-03T20:57:30.334Z,1.04
2018-02-03T20:59:57.864Z,1.17
2018-02-03T21:02:25.452Z,1.15
2018-02-03T21:04:52.976Z,1.15
2018-02-03T21:07:20.491Z,1.13
2018-02-03T21:09:48.040Z,1.23
2018-02-03T21:12:15.719Z,1.24
2018-02-03T21:14:43.262Z,1.15
2018-02-03T21:17:10.808Z,1.12
2018-02-03T21:19:38.335Z,1.20
2018-02-03T21:22:05.877Z,1.25
2018-02-03T21:24:33.433Z,1.27
2018-02-03T21:27:00.928Z,1.25
2018-02-03T21:29:28.448Z,1.07
2018-02-03T21:31:55.975Z,1.13
2018-02-03T21:34:23.576Z,1.22
2018-02-03T21:36:51.098Z,1.25
2018-02-03T21:39:18.639Z,1.31
2018-02-03T21:41:46.159Z,1.34
2018-02-03T21:44:13.665Z,1.15
2018-02-03T21:46:41.231Z,1.09
2018-02-03T21:49:08.744Z,1.10
2018-02-03T21:51:36.352Z,1.13
2018-02-03T21:54:03.916Z,1.07
2018-02-03T21:56:31.449Z,1.12
2018-02-03T21:58:58.994Z,1.01
2018-02-03T22:01:26.592Z,1.05
2018-02-03T22:03:54.165Z,0.89
2018-02-03T22:06:21.712Z,0.91
2018-02-03T22:08:49.275Z,1.01
2018-02-03T22:11:16.789Z,1.08
2018-02-03T22:13:44.332Z,1.00
2018-02-03T22:16:11.843Z,0.98
2018-02-03T22:18:39.436Z,0.78
2018-02-03T22:21:07.039Z,0.73
2018-02-03T22:23:34.596Z,0.74
2018-02-03T22:26:02.154Z,0.68
2018-02-03T22:28:29.681Z,0.69
2018-02-03T22:30:57.306Z,0.80
2018-02-03T22:33:24.834Z,0.75
2018-02-03T22:35:52.329Z,0.84
2018-02-03T22:38:19.868Z,0.93
2018-02-03T22:40:47.463Z,0.79
2018-02-03T22:43:15.063Z,0.56
2018-02-03T22:45:42.585Z,0.60
2018-02-03T22:48:10.168Z,0.67
2018-02-03T22:50:37.832Z,0.62
2018-02-03T22:53:05.432Z,0.52
2018-02-03T22:55:32.971Z,0.37
2018-02-03T22:58:00.505Z,0.33
2018-02-03T23:00:28.042Z,0.29
2018-02-03T23:02:59.441Z,0.30
2018-02-03T23:05:27.019Z,0.21
2018-02-03T23:07:54.539Z,0.28
2018-02-03T23:10:22.076Z,0.19
2018-02-03T23:12:49.691Z,0.10
2018-02-03T23:15:17.299Z,-0.04
2018-02-03T23:17:44.846Z,-0.08
2018-02-03T23:20:12.512Z,-0.14
2018-02-03T23:22:40.035Z,-0.15
2018-02-03T23:25:07.573Z,-0.15
2018-02-03T23:27:35.123Z,-0.18
2018-02-03T23:30:02.653Z,-0.15
2018-02-03T23:32:30.246Z,-0.11
2018-02-03T23:34:57.773Z,-0.13
2018-02-03T23:37:25.406Z,-0.08
2018-02-03T23:39:52.939Z,-0.12
2018-02-03T23:42:20.532Z,-0.13
2018-02-03T23:44:48.045Z,-0.16
2018-02-03T23:47:15.595Z,-0.16
2018-02-03T23:49:43.134Z,-0.09
2018-02-03T23:52:10.733Z,-0.15
2018-02-03T23:54:38.357Z,-0.01
2018-02-03T23:57:05.886Z,-0.14
2018-02-03T23:59:33.413Z,-0.04
